createdAt,value
2019-01-14T00:01:28.602Z,13.97
2019-01-14T00:04:02.079Z,13.07
2019-01-14T00:06:36.244Z,13.37
2019-01-14T00:09:11.448Z,13.07
2019-01-14T00:11:45.449Z,14.80
2019-01-14T00:14:18.913Z,18.40
2019-01-14T00:16:54.575Z,15.90
2019-01-14T00:19:28.312Z,16.90
2019-01-14T00:22:02.195Z,16.53
2019-01-14T00:24:36.792Z,15.17
2019-01-14T00:27:11.628Z,14.63
2019-01-14T00:29:45.019Z,13.97
2019-01-14T00:32:18.477Z,13.33
2019-01-14T00:34:51.999Z,15.20
2019-01-14T00:37:25.959Z,15.87
2019-01-14T00:40:04.374Z,13.87
2019-01-14T00:42:38.142Z,13.13
2019-01-14T00:45:12.246Z,13.27
2019-01-14T00:47:45.854Z,14.27
2019-01-14T00:50:19.772Z,13.93
2019-01-14T00:52:53.429Z,12.67
2019-01-14T00:55:27.394Z,13.00
2019-01-14T00:58:00.895Z,12.47
2019-01-14T01:00:34.479Z,11.87
2019-01-14T01:03:08.210Z,12.97
2019-01-14T01:05:42.090Z,11.83
2019-01-14T01:08:16.542Z,12.27
2019-01-14T01:10:50.623Z,13.27
2019-01-14T01:13:24.163Z,11.40
2019-01-14T01:15:57.591Z,10.70
2019-01-14T01:18:30.968Z,9.73
2019-01-14T01:21:04.794Z,9.80
2019-01-14T01:23:38.438Z,10.53
2019-01-14T01:26:12.375Z,10.47
2019-01-14T01:28:45.989Z,10.77
2019-01-14T01:31:19.755Z,10.20
2019-01-14T01:33:53.326Z,11.10
2019-01-14T01:36:31.807Z,10.27
2019-01-14T01:39:02.378Z,12.00
2019-01-14T01:41:39.707Z,10.90
2019-01-14T01:44:13.284Z,10.80
2019-01-14T01:46:47.112Z,10.07
2019-01-14T01:49:20.799Z,10.53
2019-01-14T01:51:54.299Z,10.37
2019-01-14T01:54:28.002Z,10.40
2019-01-14T01:57:01.939Z,10.53
2019-01-14T01:59:35.266Z,10.17
2019-01-14T02:02:08.730Z,10.57
2019-01-14T02:04:42.319Z,11.77
2019-01-14T02:07:16.110Z,9.93
2019-01-14T02:09:49.575Z,10.13
2019-01-14T02:12:23.551Z,10.60
2019-01-14T02:14:58.379Z,10.07
2019-01-14T02:17:32.129Z,9.23
2019-01-14T02:20:07.439Z,9.00
2019-01-14T02:22:41.592Z,8.70
2019-01-14T02:25:16.521Z,8.90
2019-01-14T02:27:50.458Z,9.20
2019-01-14T02:30:26.625Z,9.50
2019-01-14T02:33:00.211Z,8.90
2019-01-14T02:35:33.674Z,9.43
2019-01-14T02:38:07.283Z,9.10
2019-01-14T02:40:43.322Z,9.10
2019-01-14T02:43:19.847Z,8.50
2019-01-14T02:45:53.453Z,9.07
2019-01-14T02:48:26.584Z,7.90
2019-01-14T02:51:00.176Z,8.30
2019-01-14T02:53:33.446Z,8.77
2019-01-14T02:56:07.253Z,8.33
2019-01-14T02:58:41.284Z,8.73
2019-01-14T03:01:15.206Z,8.63
2019-01-14T03:03:49.025Z,7.93
2019-01-14T03:06:22.832Z,8.20
2019-01-14T03:08:56.607Z,8.30
2019-01-14T03:11:30.063Z,7.70
2019-01-14T03:14:03.518Z,8.00
2019-01-14T03:16:36.974Z,7.27
2019-01-14T03:19:10.863Z,7.53
2019-01-14T03:21:44.488Z,7.50
2019-01-14T03:24:18.086Z,7.50
2019-01-14T03:26:51.714Z,6.73
2019-01-14T03:29:25.308Z,6.30
2019-01-14T03:31:59.110Z,6.47
2019-01-14T03:34:33.072Z,6.70
2019-01-14T03:37:06.809Z,6.50
2019-01-14T03:39:40.674Z,6.40
2019-01-14T03:42:14.332Z,7.03
2019-01-14T03:44:50.870Z,6.93
2019-01-14T03:47:24.256Z,6.60
2019-01-14T03:49:58.139Z,6.37
2019-01-14T03:52:33.866Z,6.77
2019-01-14T03:55:08.660Z,6.37
2019-01-14T03:57:42.927Z,6.40
2019-01-14T04:00:18.079Z,5.90
2019-01-14T04:02:56.107Z,5.90
2019-01-14T04:05:29.552Z,5.93
2019-01-14T04:08:03.852Z,6.13
2019-01-14T04:10:37.342Z,6.33
2019-01-14T04:13:11.327Z,6.80
2019-01-14T04:15:44.490Z,8.70
2019-01-14T04:18:18.105Z,8.70
2019-01-14T04:20:51.204Z,5.43
2019-01-14T04:23:24.983Z,5.17
2019-01-14T04:25:58.148Z,5.13
2019-01-14T04:28:32.213Z,4.87
2019-01-14T04:31:05.883Z,8.27
2019-01-14T04:33:39.816Z,6.00
2019-01-14T04:36:13.397Z,6.40
2019-01-14T04:38:47.491Z,5.63
2019-01-14T04:41:21.074Z,6.77
2019-01-14T04:43:54.888Z,6.53
2019-01-14T04:46:29.236Z,6.30
2019-01-14T04:49:02.789Z,6.80
2019-01-14T04:51:36.534Z,7.03
2019-01-14T04:54:10.078Z,8.43
2019-01-14T04:56:43.879Z,6.63
2019-01-14T04:59:17.194Z,9.00
2019-01-14T05:01:50.768Z,10.37
2019-01-14T05:04:24.433Z,8.77
2019-01-14T05:06:57.923Z,9.10
2019-01-14T05:09:31.547Z,9.17
2019-01-14T05:12:05.464Z,7.87
2019-01-14T05:14:39.226Z,8.63
2019-01-14T05:17:12.958Z,7.63
2019-01-14T05:19:46.487Z,9.90
2019-01-14T05:22:20.163Z,14.17
2019-01-14T05:24:53.771Z,11.23
2019-01-14T05:27:27.336Z,9.43
2019-01-14T05:30:00.876Z,10.30
2019-01-14T05:32:38.934Z,10.27
2019-01-14T05:35:13.123Z,9.17
2019-01-14T05:37:46.671Z,9.57
2019-01-14T05:40:22.285Z,8.17
2019-01-14T05:42:56.707Z,7.53
2019-01-14T05:45:30.208Z,11.10
2019-01-14T05:48:04.459Z,8.57
2019-01-14T05:50:38.050Z,9.83
2019-01-14T05:53:11.935Z,11.07
2019-01-14T05:55:45.626Z,9.90
2019-01-14T05:58:19.184Z,8.30
2019-01-14T06:00:53.937Z,9.93
2019-01-14T06:03:28.848Z,11.00
2019-01-14T06:06:02.691Z,11.53
2019-01-14T06:08:36.025Z,12.50
2019-01-14T06:11:09.898Z,10.40
2019-01-14T06:13:43.351Z,9.60
2019-01-14T06:16:18.492Z,12.63
2019-01-14T06:18:52.556Z,12.13
2019-01-14T06:21:28.423Z,15.57
2019-01-14T06:24:02.742Z,10.33
2019-01-14T06:26:36.842Z,12.47
2019-01-14T06:29:10.429Z,11.30
2019-01-14T06:31:44.701Z,11.60
2019-01-14T06:34:18.364Z,17.17
2019-01-14T06:36:52.519Z,10.87
2019-01-14T06:39:26.192Z,11.40
2019-01-14T06:42:00.266Z,16.90
2019-01-14T06:44:33.990Z,10.63
2019-01-14T06:47:13.787Z,10.50
2019-01-14T06:49:48.167Z,10.87
2019-01-14T06:52:21.901Z,16.07
2019-01-14T06:54:57.585Z,13.07
2019-01-14T06:57:31.635Z,13.40
2019-01-14T07:00:06.852Z,10.07
2019-01-14T07:02:40.953Z,11.10
2019-01-14T07:05:14.647Z,11.13
2019-01-14T07:07:59.489Z,11.70
2019-01-14T07:10:31.538Z,11.23
2019-01-14T07:13:06.689Z,11.63
2019-01-14T07:15:42.599Z,14.10
2019-01-14T07:18:17.533Z,12.47
2019-01-14T07:20:51.939Z,11.03
2019-01-14T07:23:26.225Z,13.10
2019-01-14T07:25:59.950Z,11.90
2019-01-14T07:28:35.780Z,15.27
2019-01-14T07:31:12.808Z,13.27
2019-01-14T07:33:47.371Z,13.80
2019-01-14T07:36:23.825Z,12.73
2019-01-14T07:38:57.657Z,14.40
2019-01-14T07:41:31.469Z,10.00
2019-01-14T07:44:05.979Z,11.00
2019-01-14T07:46:41.744Z,12.07
2019-01-14T07:49:17.109Z,9.73
2019-01-14T07:51:52.157Z,12.73
2019-01-14T07:54:26.031Z,9.80
2019-01-14T07:56:59.388Z,9.57
2019-01-14T07:59:33.135Z,11.77
2019-01-14T08:02:06.940Z,11.70
2019-01-14T08:04:42.083Z,12.40
2019-01-14T08:07:15.819Z,11.60
2019-01-14T08:09:51.385Z,12.93
2019-01-14T08:12:25.635Z,13.03
2019-01-14T08:15:02.344Z,11.90
2019-01-14T08:17:39.077Z,11.60
2019-01-14T08:20:12.915Z,12.53
2019-01-14T08:22:46.581Z,12.40
2019-01-14T08:25:21.678Z,12.00
2019-01-14T08:27:55.777Z,11.57
2019-01-14T08:30:29.376Z,14.50
2019-01-14T08:33:03.320Z,14.03
2019-01-14T08:35:36.836Z,16.50
2019-01-14T08:38:11.666Z,12.97
2019-01-14T08:40:46.120Z,13.43
2019-01-14T08:43:20.754Z,13.53
2019-01-14T08:45:55.597Z,11.03
2019-01-14T08:48:30.764Z,11.40
2019-01-14T08:51:04.436Z,10.13
2019-01-14T08:53:47.316Z,8.47
2019-01-14T08:56:22.537Z,9.93
2019-01-14T08:58:57.982Z,8.37
2019-01-14T09:01:32.255Z,7.20
2019-01-14T09:04:07.193Z,8.97
2019-01-14T09:06:43.950Z,6.67
2019-01-14T09:09:19.535Z,8.47
2019-01-14T09:11:56.846Z,5.97
2019-01-14T09:14:30.510Z,9.07
2019-01-14T09:17:05.434Z,8.40
2019-01-14T09:19:39.169Z,9.80
2019-01-14T09:22:14.279Z,7.33
2019-01-14T09:24:48.144Z,7.30
2019-01-14T09:27:22.275Z,7.87
2019-01-14T09:29:57.415Z,9.23
2019-01-14T09:32:32.130Z,8.57
2019-01-14T09:35:06.152Z,8.30
2019-01-14T09:37:42.086Z,8.43
2019-01-14T09:40:18.228Z,6.97
2019-01-14T09:42:54.180Z,8.93
2019-01-14T09:45:32.921Z,10.27
2019-01-14T09:48:09.738Z,12.67
2019-01-14T09:50:43.586Z,13.17
2019-01-14T09:53:18.667Z,13.30
2019-01-14T09:55:54.854Z,14.07
2019-01-14T09:58:29.065Z,11.67
2019-01-14T10:01:03.230Z,10.97
2019-01-14T10:03:39.327Z,10.80
2019-01-14T10:06:14.388Z,22.00
2019-01-14T10:08:48.623Z,15.70
2019-01-14T10:11:22.282Z,12.50
2019-01-14T10:13:57.746Z,13.30
2019-01-14T10:16:32.294Z,13.03
2019-01-14T10:19:09.632Z,13.07
2019-01-14T10:21:47.402Z,10.40
2019-01-14T10:24:21.522Z,38.83
2019-01-14T10:26:55.933Z,13.13
2019-01-14T10:29:29.977Z,12.23
2019-01-14T10:32:06.140Z,12.70
2019-01-14T10:34:39.376Z,12.37
2019-01-14T10:37:12.013Z,13.73
2019-01-14T10:39:47.314Z,13.53
2019-01-14T10:42:20.997Z,13.47
2019-01-14T10:45:00.410Z,12.60
2019-01-14T10:47:35.156Z,11.30
2019-01-14T10:50:11.151Z,11.60
2019-01-14T10:52:45.163Z,12.30
2019-01-14T10:55:27.024Z,10.60
2019-01-14T10:58:02.546Z,11.07
2019-01-14T11:00:37.466Z,10.80
2019-01-14T11:03:12.049Z,10.70
2019-01-14T11:05:46.017Z,17.00
2019-01-14T11:08:19.891Z,12.40
2019-01-14T11:10:53.757Z,12.67
2019-01-14T11:13:27.853Z,12.63
2019-01-14T11:16:03.331Z,11.33
2019-01-14T11:18:37.565Z,12.20
2019-01-14T11:21:14.450Z,11.70
2019-01-14T11:23:48.570Z,15.20
2019-01-14T11:26:23.990Z,12.23
2019-01-14T11:28:58.173Z,12.77
2019-01-14T11:31:32.959Z,14.23
2019-01-14T11:34:11.977Z,19.73
2019-01-14T11:36:47.939Z,14.90
2019-01-14T11:39:23.767Z,13.43
2019-01-14T11:41:59.655Z,12.30
2019-01-14T11:44:34.168Z,13.53
2019-01-14T11:47:08.221Z,13.20
2019-01-14T11:49:42.157Z,13.43
2019-01-14T11:52:16.846Z,11.93
2019-01-14T11:54:50.789Z,11.93
2019-01-14T11:57:25.579Z,10.63
2019-01-14T12:00:02.138Z,10.40
2019-01-14T12:02:39.740Z,13.87
2019-01-14T12:05:19.308Z,13.70
2019-01-14T12:07:55.172Z,12.00
2019-01-14T12:10:29.562Z,12.13
2019-01-14T12:13:04.595Z,12.70
2019-01-14T12:15:39.568Z,11.17
2019-01-14T12:18:14.675Z,11.07
2019-01-14T12:20:51.761Z,11.13
2019-01-14T12:23:25.817Z,11.10
2019-01-14T12:26:00.576Z,13.70
2019-01-14T12:28:34.931Z,11.90
2019-01-14T12:31:09.602Z,11.13
2019-01-14T12:33:44.289Z,12.70
2019-01-14T12:36:20.648Z,9.43
2019-01-14T12:38:55.315Z,13.43
2019-01-14T12:41:31.403Z,9.87
2019-01-14T12:44:06.051Z,13.30
2019-01-14T12:46:42.056Z,8.93
2019-01-14T12:49:16.975Z,10.30
2019-01-14T12:51:51.170Z,7.83
2019-01-14T12:54:26.158Z,9.27
2019-01-14T12:57:01.169Z,11.33
2019-01-14T12:59:35.505Z,20.33
2019-01-14T13:02:09.130Z,10.47
2019-01-14T13:04:42.817Z,11.40
2019-01-14T13:07:17.393Z,10.43
2019-01-14T13:09:52.172Z,14.80
2019-01-14T13:12:26.814Z,11.77
2019-01-14T13:15:01.945Z,13.03
2019-01-14T13:17:39.137Z,13.20
2019-01-14T13:20:15.748Z,10.47
2019-01-14T13:22:48.893Z,13.30
2019-01-14T13:25:24.207Z,10.87
2019-01-14T13:27:58.737Z,12.47
2019-01-14T13:30:33.966Z,11.33
2019-01-14T13:33:09.207Z,9.50
2019-01-14T13:35:43.831Z,13.37
2019-01-14T13:38:19.022Z,9.27
2019-01-14T13:40:54.781Z,7.97
2019-01-14T13:43:28.170Z,7.87
2019-01-14T13:46:02.783Z,8.70
2019-01-14T13:48:37.314Z,8.53
2019-01-14T13:51:13.417Z,7.03
2019-01-14T13:53:46.905Z,8.10
2019-01-14T13:56:20.724Z,9.53
2019-01-14T13:58:55.150Z,6.17
2019-01-14T14:01:29.725Z,6.20
2019-01-14T14:04:08.465Z,7.80
2019-01-14T14:06:43.802Z,8.50
2019-01-14T14:09:19.167Z,5.17
2019-01-14T14:11:53.233Z,5.73
2019-01-14T14:14:27.213Z,6.37
2019-01-14T14:17:02.876Z,5.50
2019-01-14T14:19:37.402Z,6.20
2019-01-14T14:22:12.437Z,6.50
2019-01-14T14:24:50.927Z,5.33
2019-01-14T14:27:25.266Z,6.80
2019-01-14T14:29:58.419Z,7.40
2019-01-14T14:32:32.206Z,7.17
2019-01-14T14:35:07.933Z,6.60
2019-01-14T14:37:44.825Z,7.57
2019-01-14T14:40:19.663Z,8.70
2019-01-14T14:42:55.517Z,7.80
2019-01-14T14:45:29.578Z,8.50
2019-01-14T14:48:22.385Z,9.93
2019-01-14T14:50:56.980Z,8.13
2019-01-14T14:53:30.391Z,8.87
2019-01-14T14:56:06.663Z,9.00
2019-01-14T14:58:40.396Z,8.80
2019-01-14T15:01:14.979Z,8.33
2019-01-14T15:03:51.673Z,9.40
2019-01-14T15:06:27.496Z,9.37
2019-01-14T15:09:10.099Z,9.60
2019-01-14T15:11:44.673Z,9.60
2019-01-14T15:14:18.001Z,11.60
2019-01-14T15:16:53.973Z,12.13
2019-01-14T15:19:27.467Z,13.70
2019-01-14T15:22:02.075Z,15.27
2019-01-14T15:24:36.261Z,15.13
2019-01-14T15:27:10.743Z,14.47
2019-01-14T15:29:45.097Z,15.73
2019-01-14T15:32:20.267Z,18.40
2019-01-14T15:34:54.241Z,19.37
2019-01-14T15:37:29.573Z,19.70
2019-01-14T15:40:05.574Z,21.37
2019-01-14T15:42:40.070Z,20.77
2019-01-14T15:45:16.564Z,21.60
2019-01-14T15:47:51.623Z,22.50
2019-01-14T15:50:26.090Z,21.33
2019-01-14T15:52:59.353Z,24.33
2019-01-14T15:55:34.832Z,22.77
2019-01-14T15:58:09.801Z,24.47
2019-01-14T16:00:43.351Z,25.43
2019-01-14T16:03:17.611Z,29.73
2019-01-14T16:05:52.653Z,34.50
2019-01-14T16:08:27.114Z,32.43
2019-01-14T16:11:01.017Z,38.43
2019-01-14T16:13:36.186Z,38.10
2019-01-14T16:16:10.970Z,37.43
2019-01-14T16:18:45.831Z,38.80
2019-01-14T16:21:20.519Z,42.13
2019-01-14T16:23:54.341Z,44.57
2019-01-14T16:26:42.387Z,47.67
2019-01-14T16:29:16.257Z,40.60
2019-01-14T16:31:51.433Z,42.53
2019-01-14T16:34:25.244Z,41.10
2019-01-14T16:36:58.967Z,43.03
2019-01-14T16:39:33.725Z,40.00
2019-01-14T16:42:11.705Z,42.43
2019-01-14T16:44:47.819Z,39.30
2019-01-14T16:47:22.393Z,39.40
2019-01-14T16:49:57.075Z,31.63
2019-01-14T16:52:30.164Z,31.63
2019-01-14T16:55:05.990Z,33.17
2019-01-14T16:57:41.207Z,31.07
2019-01-14T17:00:18.215Z,31.77
2019-01-14T17:02:53.093Z,37.43
2019-01-14T17:08:50.015Z,42.43
2019-01-14T17:11:24.681Z,39.40
2019-01-14T17:13:58.754Z,30.03
2019-01-14T17:16:33.214Z,28.13
2019-01-14T17:19:07.157Z,30.93
2019-01-14T17:21:41.791Z,26.07
2019-01-14T17:24:17.732Z,30.30
2019-01-14T17:26:52.151Z,28.03
2019-01-14T17:29:27.359Z,29.10
2019-01-14T17:32:00.848Z,28.37
2019-01-14T17:34:35.582Z,29.30
2019-01-14T17:37:09.763Z,32.47
2019-01-14T17:39:44.292Z,30.20
2019-01-14T17:42:18.174Z,33.97
2019-01-14T17:44:52.007Z,34.57
2019-01-14T17:47:26.393Z,39.27
2019-01-14T17:50:00.997Z,39.73
2019-01-14T17:52:41.499Z,46.43
2019-01-14T17:55:16.023Z,47.67
2019-01-14T17:57:49.501Z,48.70
2019-01-14T18:00:30.235Z,55.17
2019-01-14T18:03:04.424Z,55.37
2019-01-14T18:05:38.602Z,59.27
2019-01-14T18:08:17.811Z,64.43
2019-01-14T18:10:52.456Z,61.47
2019-01-14T18:13:28.500Z,56.47
2019-01-14T18:16:02.921Z,58.20
2019-01-14T18:18:36.733Z,52.80
2019-01-14T18:21:13.946Z,50.70
2019-01-14T18:23:45.595Z,48.73
2019-01-14T18:26:21.257Z,47.93
2019-01-14T18:28:56.694Z,48.93
2019-01-14T18:31:30.879Z,46.70
2019-01-14T18:34:06.216Z,46.97
2019-01-14T18:36:40.594Z,45.33
2019-01-14T18:39:14.353Z,44.97
2019-01-14T18:41:48.520Z,47.47
2019-01-14T18:44:22.113Z,52.63
2019-01-14T18:46:56.855Z,51.67
2019-01-14T18:49:31.465Z,54.50
2019-01-14T18:52:06.016Z,54.30
2019-01-14T18:54:40.019Z,54.63
2019-01-14T18:57:13.694Z,52.47
2019-01-14T18:59:47.372Z,46.23
2019-01-14T19:02:22.095Z,45.00
2019-01-14T19:04:57.153Z,43.80
2019-01-14T19:07:30.927Z,44.83
2019-01-14T19:10:04.750Z,45.60
2019-01-14T19:12:39.699Z,47.03
2019-01-14T19:15:16.671Z,50.33
2019-01-14T19:17:50.537Z,47.33
2019-01-14T19:20:26.605Z,49.03
2019-01-14T19:23:00.753Z,49.07
2019-01-14T19:25:34.345Z,52.17
2019-01-14T19:28:08.643Z,53.53
2019-01-14T19:30:42.205Z,55.60
2019-01-14T19:33:16.165Z,52.57
2019-01-14T19:35:49.882Z,52.17
2019-01-14T19:38:23.553Z,53.87
2019-01-14T19:41:01.711Z,53.43
2019-01-14T19:43:32.489Z,53.63
2019-01-14T19:46:06.138Z,53.90
2019-01-14T19:48:40.065Z,55.30
2019-01-14T19:51:15.148Z,55.17
2019-01-14T19:53:49.279Z,51.77
2019-01-14T19:56:23.759Z,50.63
2019-01-14T19:58:57.730Z,55.60
2019-01-14T20:01:31.440Z,53.77
2019-01-14T20:04:05.716Z,53.77
2019-01-14T20:06:45.053Z,52.33
2019-01-14T20:09:20.051Z,52.80
2019-01-14T20:11:53.758Z,53.30
2019-01-14T20:14:28.194Z,53.17
2019-01-14T20:17:01.695Z,52.23
2019-01-14T20:19:35.519Z,48.67
2019-01-14T20:22:09.212Z,47.17
2019-01-14T20:24:41.551Z,43.90
2019-01-14T20:27:15.120Z,40.93
2019-01-14T20:29:49.238Z,36.43
2019-01-14T20:32:24.872Z,36.40
2019-01-14T20:34:59.040Z,38.10
2019-01-14T20:37:32.608Z,38.10
2019-01-14T20:40:07.121Z,38.83
2019-01-14T20:42:40.850Z,36.73
2019-01-14T20:45:15.501Z,37.10
2019-01-14T20:47:50.746Z,36.57
2019-01-14T20:50:24.765Z,37.43
2019-01-14T20:52:58.403Z,34.47
2019-01-14T20:55:33.973Z,32.67
2019-01-14T20:58:08.581Z,35.97
2019-01-14T21:00:42.807Z,31.93
2019-01-14T21:03:16.302Z,30.80
2019-01-14T21:05:50.119Z,29.57
2019-01-14T21:08:23.733Z,25.23
2019-01-14T21:10:58.828Z,24.07
2019-01-14T21:13:32.337Z,20.83
2019-01-14T21:16:06.750Z,20.70
2019-01-14T21:18:40.364Z,19.73
2019-01-14T21:21:14.445Z,19.13
2019-01-14T21:23:48.004Z,20.07
2019-01-14T21:26:23.970Z,23.00
2019-01-14T21:29:02.331Z,22.90
2019-01-14T21:31:39.084Z,23.27
2019-01-14T21:34:12.685Z,25.90
2019-01-14T21:36:48.808Z,25.03
2019-01-14T21:39:23.326Z,25.17
2019-01-14T21:41:56.936Z,24.53
2019-01-14T21:44:30.570Z,27.50
2019-01-14T21:47:04.299Z,25.73
2019-01-14T21:49:37.788Z,25.60
2019-01-14T21:52:11.596Z,22.70
2019-01-14T21:54:44.820Z,28.40
2019-01-14T21:57:18.546Z,23.73
2019-01-14T21:59:52.274Z,17.73
2019-01-14T22:02:26.043Z,18.83
2019-01-14T22:05:01.818Z,19.40
2019-01-14T22:07:35.597Z,18.80
2019-01-14T22:10:12.319Z,20.57
2019-01-14T22:12:46.142Z,22.13
2019-01-14T22:15:20.041Z,23.03
2019-01-14T22:17:54.481Z,23.20
2019-01-14T22:20:29.799Z,23.53
2019-01-14T22:23:03.877Z,24.87
2019-01-14T22:25:37.498Z,26.83
2019-01-14T22:28:11.542Z,28.70
2019-01-14T22:30:45.570Z,37.43
2019-01-14T22:33:19.030Z,34.20
2019-01-14T22:35:52.692Z,37.10
2019-01-14T22:38:26.760Z,38.13
2019-01-14T22:41:01.115Z,40.00
2019-01-14T22:43:34.884Z,38.33
2019-01-14T22:46:09.403Z,38.60
2019-01-14T22:48:43.105Z,39.00
2019-01-14T22:51:16.581Z,37.67
2019-01-14T22:53:50.317Z,37.33
2019-01-14T22:56:24.037Z,36.03
2019-01-14T22:58:58.461Z,33.30
2019-01-14T23:01:42.469Z,34.13
2019-01-14T23:04:16.955Z,36.30
2019-01-14T23:06:50.483Z,35.80
2019-01-14T23:09:24.914Z,32.13
2019-01-14T23:11:58.388Z,32.93
2019-01-14T23:14:32.160Z,35.53
2019-01-14T23:17:05.766Z,36.10
2019-01-14T23:19:40.565Z,36.60
2019-01-14T23:22:16.846Z,34.83
2019-01-14T23:24:50.798Z,33.30
2019-01-14T23:27:24.319Z,32.10
2019-01-14T23:29:58.295Z,33.63
2019-01-14T23:32:31.851Z,30.20
2019-01-14T23:35:05.943Z,31.43
2019-01-14T23:37:40.127Z,31.73
2019-01-14T23:40:15.175Z,30.53
2019-01-14T23:42:48.657Z,31.57
2019-01-14T23:45:22.261Z,29.80
2019-01-14T23:47:55.913Z,31.67
2019-01-14T23:50:30.359Z,29.93
2019-01-14T23:53:03.748Z,31.47
2019-01-14T23:55:38.047Z,31.10
2019-01-14T23:58:14.082Z,29.43
